Tiskilwa, Illinois
Current Conditions -  °F | °C
As of 7:15 AM on Saturday 25 Oct 2014 (Local Time) from KVYS Reporting Station
Haze Haze  
Wind Chill: 57°   Ceiling: 400
Heat Index: 57°   Visibility: 3mi
Dew Point: 57°   Wind: 7mph
Humidity: 97%   Direction: 290°WNW
Pressure: 29.96"   Gusts: NA
Location:  41.29°N, 89.51°W
Report Text: KVYS 251215Z AUTO 29006KT 3SM BR OVC004 14/14 A2996 RMK AO2 T01410137
Loading
Personal Weather Stations






























Interactive Weather Map
Tropical Storm Tracking
New forecast layout! Learn more

10-Day Weather Forecast

Advertisements
Track Severe Weather on mobile